createdAt,value
2022-11-25T00:01:31.003Z,7.40
2022-11-25T00:03:37.191Z,7.40
2022-11-25T00:05:41.535Z,7.30
2022-11-25T00:07:46.857Z,7.30
2022-11-25T00:09:51.019Z,7.20
2022-11-25T00:11:55.603Z,7.20
2022-11-25T00:14:00.169Z,7.20
2022-11-25T00:16:05.105Z,7.10
2022-11-25T00:18:09.333Z,7.10
2022-11-25T00:20:15.056Z,7.10
2022-11-25T00:22:19.158Z,7.00
2022-11-25T00:24:23.529Z,7.00
2022-11-25T00:26:29.593Z,7.00
2022-11-25T00:28:33.806Z,6.90
2022-11-25T00:30:38.087Z,6.90
2022-11-25T00:32:42.263Z,6.80
2022-11-25T00:34:46.430Z,6.70
2022-11-25T00:36:53.376Z,6.70
2022-11-25T00:38:58.734Z,6.60
2022-11-25T00:41:22.878Z,6.70
2022-11-25T00:43:46.744Z,6.60
2022-11-25T00:45:50.993Z,6.60
2022-11-25T00:47:55.438Z,6.60
2022-11-25T00:49:59.631Z,6.50
2022-11-25T00:52:06.573Z,6.40
2022-11-25T00:54:10.776Z,6.40
2022-11-25T00:56:15.331Z,6.30
2022-11-25T00:58:19.715Z,6.30
2022-11-25T01:00:24.296Z,6.30
2022-11-25T01:02:28.526Z,6.20
2022-11-25T01:04:32.879Z,6.20
2022-11-25T01:06:39.153Z,6.10
2022-11-25T01:08:44.709Z,6.20
2022-11-25T01:10:48.802Z,6.20
2022-11-25T01:12:53.118Z,6.20
2022-11-25T01:14:58.943Z,6.20
2022-11-25T01:17:03.289Z,6.20
2022-11-25T01:19:10.060Z,6.10
2022-11-25T01:21:17.986Z,6.10
2022-11-25T01:23:23.105Z,6.00
2022-11-25T01:25:28.805Z,6.00
2022-11-25T01:27:33.235Z,5.90
2022-11-25T01:29:37.377Z,5.90
2022-11-25T01:31:41.720Z,5.80
2022-11-25T01:33:47.434Z,5.70
2022-11-25T01:35:53.312Z,5.60
2022-11-25T01:37:57.699Z,5.60
2022-11-25T01:40:01.910Z,5.60
2022-11-25T01:42:09.801Z,5.60
2022-11-25T01:44:16.466Z,5.60
2022-11-25T01:46:25.579Z,5.60
2022-11-25T01:48:34.316Z,5.70
2022-11-25T01:50:38.528Z,5.60
2022-11-25T01:52:47.540Z,5.70
2022-11-25T01:55:01.009Z,5.70
2022-11-25T01:57:10.140Z,5.70
2022-11-25T01:59:16.157Z,5.60
2022-11-25T02:01:21.841Z,5.60
2022-11-25T02:03:30.518Z,5.60
2022-11-25T02:05:40.416Z,5.60
2022-11-25T02:07:47.659Z,5.60
2022-11-25T02:09:52.317Z,5.60
2022-11-25T02:11:57.801Z,5.50
2022-11-25T02:14:04.823Z,5.50
2022-11-25T02:16:09.090Z,5.60
2022-11-25T02:18:13.631Z,5.60
2022-11-25T02:20:19.715Z,5.60
2022-11-25T02:22:31.127Z,5.60
2022-11-25T02:24:43.789Z,5.50
2022-11-25T02:26:49.513Z,5.60
2022-11-25T02:28:53.942Z,5.60
2022-11-25T02:30:58.599Z,5.60
2022-11-25T02:33:02.992Z,5.60
2022-11-25T02:35:26.488Z,5.70
2022-11-25T02:37:30.790Z,5.70
2022-11-25T02:39:34.955Z,5.70
2022-11-25T02:41:42.300Z,5.70
2022-11-25T02:43:48.323Z,5.80
2022-11-25T02:46:01.616Z,5.70
2022-11-25T02:48:06.518Z,5.70
2022-11-25T02:50:13.778Z,5.60
2022-11-25T02:52:17.916Z,5.60
2022-11-25T02:54:22.271Z,5.70
2022-11-25T02:56:29.363Z,5.70
2022-11-25T02:58:33.761Z,5.80
2022-11-25T03:00:39.362Z,5.80
2022-11-25T03:03:35.995Z,5.80
2022-11-25T03:05:40.671Z,5.70
2022-11-25T03:07:44.826Z,5.50
2022-11-25T03:09:49.114Z,5.60
2022-11-25T03:12:10.949Z,5.60
2022-11-25T03:14:15.556Z,5.60
2022-11-25T03:16:21.886Z,5.60
2022-11-25T03:18:26.688Z,5.70
2022-11-25T03:20:31.068Z,5.70
2022-11-25T03:22:35.342Z,5.70
2022-11-25T03:24:41.588Z,5.70
2022-11-25T03:26:45.989Z,5.70
2022-11-25T03:28:50.275Z,5.70
2022-11-25T03:30:54.498Z,5.70
2022-11-25T03:33:00.434Z,5.80
2022-11-25T03:35:05.689Z,5.80
2022-11-25T03:37:11.163Z,5.80
2022-11-25T03:39:16.253Z,5.80
2022-11-25T03:41:20.864Z,5.80
2022-11-25T03:43:25.320Z,5.80
2022-11-25T03:45:29.671Z,5.80
2022-11-25T03:47:36.690Z,5.80
2022-11-25T03:49:42.956Z,5.80
2022-11-25T03:51:47.899Z,5.80
2022-11-25T03:53:54.416Z,5.80
2022-11-25T03:55:59.821Z,5.80
2022-11-25T03:58:04.182Z,5.90
2022-11-25T04:00:11.194Z,5.90
2022-11-25T04:02:24.113Z,5.90
2022-11-25T04:04:28.823Z,6.00
2022-11-25T04:06:34.461Z,6.00
2022-11-25T04:08:39.483Z,6.00
2022-11-25T04:10:44.525Z,6.00
2022-11-25T04:12:48.238Z,6.00
2022-11-25T04:15:12.340Z,5.80
2022-11-25T04:17:17.842Z,5.90
2022-11-25T04:19:22.896Z,5.90
2022-11-25T04:21:27.234Z,5.90
2022-11-25T04:23:32.899Z,6.00
2022-11-25T04:25:41.142Z,5.90
2022-11-25T04:27:50.412Z,5.90
2022-11-25T04:30:00.008Z,5.90
2022-11-25T04:32:05.789Z,6.00
2022-11-25T04:34:10.224Z,5.90
2022-11-25T04:36:14.362Z,6.00
2022-11-25T04:38:18.593Z,5.90
2022-11-25T04:40:24.464Z,5.90
2022-11-25T04:42:39.789Z,6.00
2022-11-25T04:45:07.548Z,6.10
2022-11-25T04:47:15.366Z,6.10
2022-11-25T04:49:19.738Z,6.10
2022-11-25T04:51:23.916Z,6.10
2022-11-25T04:53:33.398Z,6.20
2022-11-25T04:55:39.082Z,6.10
2022-11-25T04:57:47.236Z,6.10
2022-11-25T04:59:52.555Z,6.20
2022-11-25T05:01:56.823Z,6.20
2022-11-25T05:04:08.257Z,6.20
2022-11-25T05:06:13.546Z,6.10
2022-11-25T05:08:18.017Z,6.00
2022-11-25T05:10:22.189Z,5.90
2022-11-25T05:12:32.057Z,5.80
2022-11-25T05:14:37.939Z,5.90
2022-11-25T05:16:42.725Z,5.90
2022-11-25T05:18:47.334Z,5.90
2022-11-25T05:20:51.542Z,5.80
2022-11-25T05:22:58.765Z,5.80
2022-11-25T05:25:05.662Z,5.80
2022-11-25T05:27:13.656Z,5.80
2022-11-25T05:29:19.205Z,5.80
2022-11-25T05:31:24.281Z,5.70
2022-11-25T05:33:29.027Z,5.70
2022-11-25T05:35:33.201Z,5.70
2022-11-25T05:37:37.566Z,5.70
2022-11-25T05:39:43.096Z,5.70
2022-11-25T05:42:08.748Z,5.70
2022-11-25T05:44:17.236Z,5.70
2022-11-25T05:46:28.343Z,5.60
2022-11-25T05:48:33.933Z,5.70
2022-11-25T05:50:39.068Z,5.60
2022-11-25T05:52:59.172Z,5.60
2022-11-25T05:55:03.453Z,5.60
2022-11-25T05:57:08.665Z,5.60
2022-11-25T05:59:25.253Z,5.50
2022-11-25T06:01:56.960Z,5.60
2022-11-25T06:04:02.887Z,5.60
2022-11-25T06:06:08.211Z,5.60
2022-11-25T06:08:12.860Z,5.60
2022-11-25T06:10:17.215Z,5.50
2022-11-25T06:12:23.072Z,5.40
2022-11-25T06:14:27.280Z,5.40
2022-11-25T06:16:32.244Z,5.40
2022-11-25T06:18:57.263Z,5.40
2022-11-25T06:21:01.437Z,5.50
2022-11-25T06:23:06.259Z,5.50
2022-11-25T06:25:13.449Z,5.50
2022-11-25T06:27:19.263Z,5.50
2022-11-25T06:29:23.503Z,5.50
2022-11-25T06:31:29.922Z,5.40
2022-11-25T06:34:01.535Z,5.40
2022-11-25T06:36:08.065Z,5.40
2022-11-25T06:38:12.238Z,5.40
2022-11-25T06:40:16.506Z,5.40
2022-11-25T06:42:20.716Z,5.40
2022-11-25T06:44:24.913Z,5.40
2022-11-25T06:46:29.267Z,5.50
2022-11-25T06:48:33.776Z,5.50
2022-11-25T06:50:39.647Z,5.50
2022-11-25T06:52:43.918Z,5.50
2022-11-25T06:54:48.136Z,5.40
2022-11-25T06:56:53.882Z,5.40
2022-11-25T06:58:58.585Z,5.40
2022-11-25T07:01:04.571Z,5.40
2022-11-25T07:03:08.719Z,5.50
2022-11-25T07:05:12.979Z,5.40
2022-11-25T07:07:18.553Z,5.50
2022-11-25T07:09:22.909Z,5.50
2022-11-25T07:11:29.314Z,5.50
2022-11-25T07:13:33.795Z,5.50
2022-11-25T07:15:39.208Z,5.60
2022-11-25T07:17:43.785Z,5.70
2022-11-25T07:19:48.121Z,5.70
2022-11-25T07:21:52.547Z,5.70
2022-11-25T07:23:59.394Z,5.80
2022-11-25T07:26:04.791Z,5.80
2022-11-25T07:28:09.043Z,5.80
2022-11-25T07:32:37.908Z,5.90
2022-11-25T07:34:42.682Z,5.90
2022-11-25T07:36:47.773Z,6.00
2022-11-25T07:38:52.549Z,6.00
2022-11-25T07:41:00.217Z,5.90
2022-11-25T07:43:04.371Z,6.00
2022-11-25T07:45:10.049Z,6.10
2022-11-25T07:47:19.868Z,6.10
2022-11-25T07:49:25.701Z,6.10
2022-11-25T07:51:32.290Z,6.10
2022-11-25T07:53:36.471Z,6.10
2022-11-25T07:55:40.708Z,6.20
2022-11-25T07:57:46.416Z,6.30
2022-11-25T07:59:50.628Z,6.30
2022-11-25T08:01:56.227Z,6.40
2022-11-25T08:04:00.524Z,6.40
2022-11-25T08:06:05.637Z,6.50
2022-11-25T08:08:09.942Z,6.50
2022-11-25T08:10:14.083Z,6.50
2022-11-25T08:12:19.502Z,6.60
2022-11-25T08:14:27.441Z,6.60
2022-11-25T08:16:32.454Z,6.60
2022-11-25T08:18:36.792Z,6.60
2022-11-25T08:20:41.316Z,6.60
2022-11-25T08:22:48.563Z,6.60
2022-11-25T08:24:59.111Z,6.80
2022-11-25T08:27:34.728Z,6.80
2022-11-25T08:30:12.269Z,6.70
2022-11-25T08:32:19.134Z,6.70
2022-11-25T08:34:25.898Z,6.80
2022-11-25T08:36:37.524Z,6.70
2022-11-25T08:38:42.216Z,6.80
2022-11-25T08:40:46.886Z,6.80
2022-11-25T08:42:51.149Z,6.90
2022-11-25T08:44:58.203Z,6.90
2022-11-25T08:47:03.939Z,7.00
2022-11-25T08:49:10.296Z,7.00
2022-11-25T08:51:17.101Z,7.10
2022-11-25T08:53:22.265Z,7.10
2022-11-25T08:55:27.476Z,7.20
2022-11-25T08:57:33.551Z,7.20
2022-11-25T08:59:39.193Z,7.20
2022-11-25T09:01:46.840Z,7.20
2022-11-25T09:04:03.286Z,7.30
2022-11-25T09:06:10.508Z,7.20
2022-11-25T09:08:23.784Z,7.20
2022-11-25T09:10:28.394Z,7.20
2022-11-25T09:12:35.967Z,7.20
2022-11-25T09:14:43.602Z,7.20
2022-11-25T09:16:48.215Z,7.30
2022-11-25T09:18:56.098Z,7.40
2022-11-25T09:21:01.395Z,7.50
2022-11-25T09:23:06.067Z,7.60
2022-11-25T09:25:10.854Z,7.70
2022-11-25T09:27:16.602Z,7.70
2022-11-25T09:29:20.894Z,7.70
2022-11-25T09:31:25.441Z,7.70
2022-11-25T09:33:29.791Z,7.70
2022-11-25T09:35:35.432Z,7.80
2022-11-25T09:37:39.635Z,7.90
2022-11-25T09:39:43.969Z,7.90
2022-11-25T09:46:04.189Z,8.00
2022-11-25T09:49:12.909Z,8.20
2022-11-25T09:51:58.172Z,8.30
2022-11-25T09:54:38.610Z,8.50
2022-11-25T09:56:50.538Z,8.60
2022-11-25T09:59:03.171Z,8.60
2022-11-25T10:01:39.361Z,8.70
2022-11-25T10:04:25.875Z,8.70
2022-11-25T10:07:02.193Z,8.90
2022-11-25T10:09:31.871Z,9.00
2022-11-25T10:12:00.531Z,9.20
2022-11-25T10:14:48.910Z,9.40
2022-11-25T10:17:08.684Z,9.60
2022-11-25T10:19:23.828Z,9.80
2022-11-25T10:21:41.310Z,9.70
2022-11-25T10:23:52.937Z,9.70
2022-11-25T10:26:15.388Z,9.70
2022-11-25T10:28:26.072Z,9.70
2022-11-25T10:30:44.361Z,9.70
2022-11-25T10:32:56.595Z,9.60
2022-11-25T10:35:24.662Z,9.50
2022-11-25T10:37:32.890Z,9.40
2022-11-25T10:39:42.810Z,9.40
2022-11-25T10:42:03.535Z,9.50
2022-11-25T10:44:27.192Z,9.60
2022-11-25T10:47:11.887Z,9.70
2022-11-25T10:49:12.349Z,9.90
2022-11-25T10:51:32.971Z,10.10
2022-11-25T10:53:37.304Z,10.30
2022-11-25T10:56:06.231Z,10.50
2022-11-25T10:58:30.965Z,10.60
2022-11-25T11:03:32.482Z,10.80
2022-11-25T11:05:47.413Z,11.00
2022-11-25T11:08:10.313Z,11.10
2022-11-25T11:10:22.153Z,11.20
2022-11-25T11:12:29.886Z,11.20
2022-11-25T11:14:34.868Z,11.20
2022-11-25T11:16:46.219Z,11.20
2022-11-25T11:18:51.700Z,11.30
2022-11-25T11:21:01.468Z,11.30
2022-11-25T11:23:11.061Z,11.30
2022-11-25T11:25:27.828Z,11.30
2022-11-25T11:27:38.523Z,11.30
2022-11-25T11:29:42.609Z,11.20
2022-11-25T11:31:49.793Z,11.20
2022-11-25T11:34:04.088Z,11.10
2022-11-25T11:36:23.138Z,11.00
2022-11-25T11:38:37.909Z,11.20
2022-11-25T11:40:52.071Z,11.30
2022-11-25T11:43:22.299Z,11.20
2022-11-25T11:45:56.064Z,11.00
2022-11-25T11:48:16.378Z,11.00
2022-11-25T11:50:34.933Z,10.60
2022-11-25T11:52:55.688Z,10.60
2022-11-25T11:55:04.560Z,10.60
2022-11-25T11:57:29.093Z,10.60
2022-11-25T11:59:53.695Z,10.70
2022-11-25T12:02:19.863Z,10.70
2022-11-25T12:04:40.602Z,10.80
2022-11-25T12:06:58.567Z,10.90
2022-11-25T12:09:11.778Z,10.90
2022-11-25T12:11:22.974Z,10.90
2022-11-25T12:13:40.587Z,11.00
2022-11-25T12:16:11.152Z,10.90
2022-11-25T12:18:50.061Z,10.90
2022-11-25T12:21:11.318Z,10.90
2022-11-25T12:23:39.626Z,10.90
2022-11-25T12:26:43.463Z,11.00
2022-11-25T12:30:57.474Z,10.90
2022-11-25T12:34:17.557Z,11.00
2022-11-25T12:37:26.644Z,11.70
2022-11-25T12:40:23.065Z,11.60
2022-11-25T12:43:39.280Z,11.40
2022-11-25T12:50:30.552Z,11.10
2022-11-25T12:54:15.496Z,11.00
2022-11-25T13:01:26.339Z,10.90
2022-11-25T13:05:33.005Z,10.80
2022-11-25T13:09:06.638Z,10.70
2022-11-25T13:11:57.637Z,10.60
2022-11-25T13:17:46.499Z,10.40
2022-11-25T13:20:43.527Z,10.40
2022-11-25T13:23:14.858Z,10.30
2022-11-25T13:25:35.327Z,10.20
2022-11-25T13:28:01.489Z,10.10
2022-11-25T13:30:39.928Z,10.10
2022-11-25T13:32:53.213Z,10.10
2022-11-25T13:35:37.889Z,10.00
2022-11-25T13:37:59.442Z,10.00
2022-11-25T13:40:45.951Z,9.80
2022-11-25T13:43:00.804Z,9.80
2022-11-25T13:45:28.915Z,9.80
2022-11-25T13:47:41.644Z,9.70
2022-11-25T13:49:54.104Z,9.70
2022-11-25T13:52:02.095Z,9.70
2022-11-25T13:54:19.162Z,9.70
2022-11-25T13:56:32.055Z,9.70
2022-11-25T13:59:05.418Z,9.60
2022-11-25T14:01:29.913Z,9.70
2022-11-25T14:04:09.974Z,9.60
2022-11-25T14:06:31.505Z,9.60
2022-11-25T14:08:45.523Z,9.60
2022-11-25T14:11:00.140Z,9.50
2022-11-25T14:13:22.059Z,9.50
2022-11-25T14:15:39.442Z,9.50
2022-11-25T14:18:21.940Z,9.50
2022-11-25T14:20:45.967Z,9.40
2022-11-25T14:23:24.697Z,9.40
2022-11-25T14:25:31.365Z,9.40
2022-11-25T14:27:37.831Z,9.40
2022-11-25T14:29:47.689Z,9.30
2022-11-25T14:31:55.895Z,9.30
2022-11-25T14:34:05.083Z,9.30
2022-11-25T14:36:15.785Z,9.20
2022-11-25T14:38:24.455Z,9.20
2022-11-25T14:40:37.542Z,9.20
2022-11-25T14:42:46.563Z,9.20
2022-11-25T14:44:54.118Z,9.10
2022-11-25T14:47:06.841Z,9.10
2022-11-25T14:49:30.644Z,9.20
2022-11-25T14:51:39.829Z,9.20
2022-11-25T14:53:48.776Z,9.10
2022-11-25T14:55:55.100Z,9.10
2022-11-25T14:57:59.464Z,9.00
2022-11-25T15:00:07.222Z,9.00
2022-11-25T15:02:27.931Z,9.00
2022-11-25T15:04:34.037Z,8.90
2022-11-25T15:06:42.676Z,9.00
2022-11-25T15:08:55.273Z,8.90
2022-11-25T15:11:02.645Z,8.90
2022-11-25T15:13:14.425Z,8.80
2022-11-25T15:15:19.350Z,8.70
2022-11-25T15:17:30.297Z,8.70
2022-11-25T15:19:37.101Z,8.70
2022-11-25T15:22:20.765Z,8.80
2022-11-25T15:24:22.289Z,8.70
2022-11-25T15:26:28.537Z,8.70
2022-11-25T15:28:37.063Z,8.60
2022-11-25T15:30:41.262Z,8.60
2022-11-25T15:32:46.004Z,8.50
2022-11-25T15:34:50.693Z,8.40
2022-11-25T15:36:56.290Z,8.40
2022-11-25T15:39:16.825Z,8.30
2022-11-25T15:41:34.558Z,8.30
2022-11-25T15:43:45.350Z,8.20
2022-11-25T15:45:52.717Z,8.20
2022-11-25T15:47:58.370Z,8.20
2022-11-25T15:50:06.169Z,8.20
2022-11-25T15:52:19.148Z,8.10
2022-11-25T15:54:27.554Z,8.10
2022-11-25T15:56:35.031Z,8.00
2022-11-25T15:58:44.040Z,8.00
2022-11-25T16:01:05.157Z,7.90
2022-11-25T16:03:20.728Z,7.80
2022-11-25T16:05:33.722Z,7.70
2022-11-25T16:07:40.524Z,7.80
2022-11-25T16:09:53.699Z,7.70
2022-11-25T16:12:07.470Z,7.60
2022-11-25T16:14:27.541Z,7.60
2022-11-25T16:16:32.357Z,7.60
2022-11-25T16:18:42.548Z,7.50
2022-11-25T16:20:51.809Z,7.50
2022-11-25T16:22:57.871Z,7.40
2022-11-25T16:25:03.037Z,7.40
2022-11-25T16:27:19.542Z,7.40
2022-11-25T16:29:29.416Z,7.40
2022-11-25T16:31:34.587Z,7.30
2022-11-25T16:33:39.450Z,7.20
2022-11-25T16:35:43.758Z,7.20
2022-11-25T16:37:49.437Z,7.20
2022-11-25T16:39:55.758Z,7.30
2022-11-25T16:42:04.308Z,7.30
2022-11-25T16:44:19.360Z,7.40
2022-11-25T16:46:26.819Z,7.30
2022-11-25T16:48:31.354Z,7.30
2022-11-25T16:50:35.878Z,7.20
2022-11-25T16:52:45.174Z,7.20
2022-11-25T16:54:50.335Z,7.20
2022-11-25T16:56:57.316Z,7.20
2022-11-25T16:59:03.161Z,7.10
2022-11-25T17:01:14.087Z,7.20
2022-11-25T17:03:19.903Z,7.20
2022-11-25T17:05:29.066Z,7.20
2022-11-25T17:07:34.113Z,7.10
2022-11-25T17:09:39.169Z,7.00
2022-11-25T17:11:49.238Z,7.00
2022-11-25T17:13:56.493Z,7.10
2022-11-25T17:16:09.012Z,7.10
2022-11-25T17:18:17.111Z,7.10
2022-11-25T17:20:26.979Z,7.10
2022-11-25T17:22:37.557Z,7.10
2022-11-25T17:24:44.126Z,7.10
2022-11-25T17:26:52.075Z,7.10
2022-11-25T17:29:00.307Z,7.10
2022-11-25T17:31:06.832Z,7.10
2022-11-25T17:33:15.607Z,7.10
2022-11-25T17:35:21.810Z,7.10
2022-11-25T17:37:28.824Z,7.10
2022-11-25T17:39:33.202Z,7.10
2022-11-25T17:41:40.528Z,7.10
2022-11-25T17:43:46.597Z,7.10
2022-11-25T17:45:52.473Z,7.20
2022-11-25T17:47:56.867Z,7.20
2022-11-25T17:50:01.776Z,7.20
2022-11-25T17:52:10.741Z,7.10
2022-11-25T17:54:17.176Z,7.10
2022-11-25T17:56:28.014Z,7.00
2022-11-25T17:58:32.495Z,6.80
2022-11-25T18:00:37.518Z,6.60
2022-11-25T18:02:48.046Z,6.50
2022-11-25T18:04:55.595Z,6.40
2022-11-25T18:07:00.270Z,6.30
2022-11-25T18:09:06.690Z,6.30
2022-11-25T18:11:19.963Z,6.30
2022-11-25T18:13:24.555Z,6.20
2022-11-25T18:15:32.458Z,6.10
2022-11-25T18:17:40.118Z,5.70
2022-11-25T18:19:55.535Z,5.50
2022-11-25T18:22:02.236Z,5.50
2022-11-25T18:24:07.495Z,5.40
2022-11-25T18:26:15.952Z,5.40
2022-11-25T18:28:25.891Z,5.50
2022-11-25T18:30:33.589Z,5.50
2022-11-25T18:32:39.538Z,5.50
2022-11-25T18:34:43.995Z,5.50
2022-11-25T18:36:53.584Z,5.50
2022-11-25T18:38:59.436Z,5.50
2022-11-25T18:41:03.741Z,5.60
2022-11-25T18:43:14.346Z,5.50
2022-11-25T18:45:25.517Z,5.50
2022-11-25T18:47:30.236Z,5.60
2022-11-25T18:49:34.999Z,5.60
2022-11-25T18:51:43.440Z,5.60
2022-11-25T18:53:49.404Z,5.50
2022-11-25T18:55:54.410Z,5.50
2022-11-25T18:57:59.014Z,5.50
2022-11-25T19:00:31.196Z,5.50
2022-11-25T19:02:28.902Z,5.50
2022-11-25T19:04:33.394Z,5.50
2022-11-25T19:06:37.757Z,5.50
2022-11-25T19:08:42.115Z,5.50
2022-11-25T19:10:48.636Z,5.50
2022-11-25T19:12:57.760Z,5.50
2022-11-25T19:15:02.439Z,5.40
2022-11-25T19:17:14.344Z,5.40
2022-11-25T19:19:21.703Z,5.30
2022-11-25T19:21:26.796Z,5.20
2022-11-25T19:23:31.243Z,5.20
2022-11-25T19:25:35.557Z,5.20
2022-11-25T19:27:45.999Z,5.20
2022-11-25T19:29:50.542Z,5.20
2022-11-25T19:31:56.671Z,5.20
2022-11-25T19:34:02.748Z,5.30
2022-11-25T19:36:07.696Z,5.30
2022-11-25T19:38:16.673Z,5.30
2022-11-25T19:40:23.519Z,5.40
2022-11-25T19:42:31.815Z,5.40
2022-11-25T19:44:37.642Z,5.40
2022-11-25T19:47:13.792Z,5.40
2022-11-25T19:49:16.316Z,5.40
2022-11-25T19:51:22.762Z,5.40
2022-11-25T19:53:33.436Z,5.40
2022-11-25T19:55:38.729Z,5.30
2022-11-25T19:57:43.783Z,5.30
2022-11-25T19:59:49.897Z,5.20
2022-11-25T20:01:54.467Z,5.20
2022-11-25T20:03:59.042Z,5.20
2022-11-25T20:06:03.617Z,5.20
2022-11-25T20:08:12.290Z,5.20
2022-11-25T20:10:19.766Z,5.20
2022-11-25T20:12:26.704Z,5.20
2022-11-25T20:14:35.006Z,5.20
2022-11-25T20:16:43.219Z,5.20
2022-11-25T20:18:48.248Z,5.20
2022-11-25T20:21:03.150Z,5.20
2022-11-25T20:23:12.500Z,5.30
2022-11-25T20:25:17.347Z,5.30
2022-11-25T20:27:23.795Z,5.40
2022-11-25T20:29:30.697Z,5.40
2022-11-25T20:31:35.355Z,5.40
2022-11-25T20:33:41.301Z,5.40
2022-11-25T20:35:49.357Z,5.40
2022-11-25T20:37:58.152Z,5.40
2022-11-25T20:40:02.825Z,5.40
2022-11-25T20:42:10.093Z,5.40
2022-11-25T20:44:15.409Z,5.40
2022-11-25T20:46:23.021Z,5.30
2022-11-25T20:48:28.764Z,5.30
2022-11-25T20:50:34.701Z,5.20
2022-11-25T20:52:39.587Z,5.10
2022-11-25T20:54:44.310Z,5.00
2022-11-25T20:56:48.664Z,4.90
2022-11-25T20:58:53.086Z,4.80
2022-11-25T21:00:59.638Z,4.70
2022-11-25T21:03:04.625Z,4.60
2022-11-25T21:05:09.784Z,4.60
2022-11-25T21:07:18.192Z,4.60
2022-11-25T21:09:25.886Z,4.50
2022-11-25T21:11:33.130Z,4.50
2022-11-25T21:13:38.857Z,4.50
2022-11-25T21:15:43.216Z,4.50
2022-11-25T21:17:47.738Z,4.50
2022-11-25T21:19:52.973Z,4.50
2022-11-25T21:21:57.346Z,4.60
2022-11-25T21:24:09.030Z,4.60
2022-11-25T21:26:18.766Z,4.60
2022-11-25T21:28:26.451Z,4.60
2022-11-25T21:30:32.211Z,4.60
2022-11-25T21:32:36.566Z,4.60
2022-11-25T21:34:40.999Z,4.50
2022-11-25T21:36:47.827Z,4.40
2022-11-25T21:38:55.817Z,4.40
2022-11-25T21:41:01.834Z,4.40
2022-11-25T21:43:07.384Z,4.40
2022-11-25T21:45:17.217Z,4.40
2022-11-25T21:47:24.786Z,4.40
2022-11-25T21:49:29.165Z,4.40
2022-11-25T21:51:33.648Z,4.40
2022-11-25T21:53:37.943Z,4.50
2022-11-25T21:55:42.367Z,4.40
2022-11-25T21:57:48.581Z,4.40
2022-11-25T21:59:53.317Z,4.50
2022-11-25T22:01:57.868Z,4.50
2022-11-25T22:04:03.537Z,4.40
2022-11-25T22:06:17.310Z,4.40
2022-11-25T22:08:21.997Z,4.40
2022-11-25T22:10:26.453Z,4.30
2022-11-25T22:12:34.349Z,4.30
2022-11-25T22:14:43.971Z,4.30
2022-11-25T22:16:48.763Z,4.30
2022-11-25T22:18:53.441Z,4.30
2022-11-25T22:20:58.065Z,4.30
2022-11-25T22:23:03.605Z,4.20
2022-11-25T22:25:10.737Z,4.20
2022-11-25T22:27:22.273Z,4.20
2022-11-25T22:29:34.249Z,4.20
2022-11-25T22:31:40.423Z,4.20
2022-11-25T22:33:46.002Z,4.20
2022-11-25T22:35:50.678Z,4.20
2022-11-25T22:37:55.667Z,4.20
2022-11-25T22:40:00.085Z,4.20
2022-11-25T22:42:07.862Z,4.10
2022-11-25T22:44:20.832Z,4.20
2022-11-25T22:46:25.102Z,4.20
2022-11-25T22:48:34.837Z,4.10
2022-11-25T22:50:39.012Z,4.10
2022-11-25T22:52:43.321Z,4.10
2022-11-25T22:54:47.630Z,4.10
2022-11-25T22:56:52.826Z,4.10
2022-11-25T22:59:00.474Z,4.10
2022-11-25T23:01:05.112Z,4.10
2022-11-25T23:03:17.044Z,4.20
2022-11-25T23:05:32.104Z,4.20
2022-11-25T23:07:37.157Z,4.20
2022-11-25T23:09:41.965Z,4.20
2022-11-25T23:11:47.760Z,4.20
2022-11-25T23:13:52.040Z,4.20
2022-11-25T23:15:58.440Z,4.20
2022-11-25T23:18:05.585Z,4.20
2022-11-25T23:20:16.797Z,4.10
2022-11-25T23:22:22.900Z,4.10
2022-11-25T23:24:27.855Z,4.10
2022-11-25T23:26:35.040Z,4.10
2022-11-25T23:28:39.708Z,4.00
2022-11-25T23:30:49.647Z,4.10
2022-11-25T23:32:55.464Z,4.00
2022-11-25T23:35:00.432Z,4.00
2022-11-25T23:37:04.825Z,4.00
2022-11-25T23:39:20.209Z,4.00
2022-11-25T23:41:26.403Z,4.00
2022-11-25T23:43:31.236Z,4.00
2022-11-25T23:45:35.622Z,3.90
2022-11-25T23:47:41.186Z,3.90
2022-11-25T23:49:48.451Z,4.00
2022-11-25T23:51:53.561Z,4.00
2022-11-25T23:54:00.133Z,4.00
2022-11-25T23:56:06.786Z,4.00
2022-11-25T23:58:16.572Z,4.00
